Jacksonville, FL (32224)

9:46 PM EDT en Septiembre 27, 2016 (GMT -0400)
Windsor Park/Hanover Park | | Change Station

Alt 30 ft 30.26 °N, 81.45 °W | Updated 31 seconds ago

Clear
Despejado
73.0 ° F
Sensación térmica 73.0 ° F
N
0.0
Viento Variable Viento desde Sur
Gusts 0.0 mph

Hoy
Alta -- | Baja -- ° F
--% Posibilidad de precipitaciones
Ayer
Alta -- | Baja -- ° F
Precip. -- pul
Presión 29.91 pul
Visibilidad 10.0 Millas
Nubes Despejado
Punto de rocío 71 ° F
Humedad 93%
Precipitaciones 0.00 pul
Espesor de la nieve No disponible.
7:17 AM 7:15 PM
Creciente menguante, 8% visible
METAR KCRG 280053Z 00000KT 10SM CLR 24/21 A2991 RMK AO2 SLP128 T02440211
Presión 29.91 pul
Visibilidad 10.0 Millas
Nubes Despejado
Punto de rocío 71 ° F
Humedad 93%
Precipitaciones 0.00 pul
Espesor de la nieve No disponible.
7:17 AM 7:15 PM
Creciente menguante, 8% visible
METAR KCRG 280053Z 00000KT 10SM CLR 24/21 A2991 RMK AO2 SLP128 T02440211

10-Day Weather Forecast

Almanac

Astronomía

Sep. 27, 2016 Salida Puesta
Hora real
Crepúsculo civil
Crepúsculo náutico
Crepúsculo astronómico
Luna
Horas de luz
Horas de luz
Tomorrow will be .
, % of the Moon is Illuminated

Extremos de hoy

Máximos del estado Bajos del estado

Community

WunderPhotos

Upload Photos

1,942,178 ¡fotos cargadas!

WunderBlog® & News

Nearby

Calidad del aire

  Calidad del aire Índice AQ Contaminante
Not available.

Grosos de nieve

Estación Profundido Altura

Actividad de terremotos

Ciudad Distance Mag. Tiempo y dato
Magnitud mínima muestra es 2,5.

Temperaturas de aguas costeras

Lugar Temperatura

Stations

Estaciones meteorológicas cercanas

Ubicación de la estación Temp. Vientos helados Punto de rocío Humedad Viento Precip. Alt Actualizado Tipo
                   

Watches & Warnings

There are currently no watches in effect.